Aupaluk, Quebec

12:12 PM EDT on May 25, 2019 (GMT -0400)
Aupaluk | | Change Station

Elev 115 ft 59.28 °N, 69.58 °W | Updated 12 minutes ago

Overcast
Overcast
37 °F
Feels Like 30 °F
N
12
Wind Variable Wind from West

Today
High -- | Low -- °F
--% Chance of Precip.
Yesterday
High -- | Low -- °F
Precip. -- in
Pressure 30.11 in
Visibility 15.0 miles
Clouds Few 1500 ft
Overcast 4400 ft
Windchill 30 °F
Dew Point 27 °F
Humidity 65%
Rainfall 0.00 in
Snow Depth Not available.
3:45 AM 9:26 PM
Waning Gibbous, 60% visible
METAR CYLA 251600Z 28010KT 15SM FEW015 OVC044 03/M03 A3009 RMK SC2SC6 SLP195
Pressure 30.11 in
Visibility 15.0 miles
Clouds Few 1500 ft
Overcast 4400 ft
Windchill 30 °F
Dew Point 27 °F
Humidity 65%
Rainfall 0.00 in
Snow Depth Not available.
3:45 AM 9:26 PM
Waning Gibbous, 60% visible
METAR CYLA 251600Z 28010KT 15SM FEW015 OVC044 03/M03 A3009 RMK SC2SC6 SLP195

Get Severe Weather Alerts

Thanks for signing up!

Be on the lookout for a verification email in your inbox.

You'll start receiving the daily forecast at 6 AM.

×

10-Day Weather Forecast

Almanac

Astronomy

May. 25, 2019 Rise Set
Actual Time
Civil Twilight
Nautical Twilight
Astronomical Twilight
Moon
Length of Visible Light
Length of Day
Tomorrow will be .
, % of the Moon is Illuminated

Today's Extremes

Country Highs Country Lows

Community

WunderPhotos

Category 6

Welcome to Category 6. This is the collective home for Weather Underground's featured writeups by Dr. Jeff Masters (right), Bob Henson (left), Chris Burt, and other regular contributors.

Nearby

Air Quality

  Air Quality AQ Index Pollutant
Not available.

Snow Depth

Station Depth Elevation

Earthquake Activity

City Distance Mag. Time & Date
Minimum magnitude displayed is 2.5.

Coastal Water Temperatures

Place Temperature

Stations

Nearby Weather Stations

Station Location Temp. Windchill Dew Point Humidity Wind Precip. Elev Updated Type
                   

Watches & Warnings

There are currently no watches in effect.